EHRD/RTM METAR and TAF weather

Enter ICAO airport designator
Station Type Date Time Source
EHRD METAR 2018/07/21 11:25 UTC NOAA

EHRD 211125Z AUTO 33009KT 250V020 9999 NCD 25/14 Q1012 NOSIG


Station Type Date Time Source
EHRD Decoded METAR 2018/07/21 11:25 UTC NOAA

Rotterdam Airport Zestienhoven, Netherlands (EHRD) 51-57N 004-27E -4M
Jul 21, 2018 - 07:25 AM EDT / 2018.07.21 1125 UTC
Wind: from the NNW (330 degrees) at 10 MPH (9 KT) (direction variable):0
Visibility: greater than 7 mile(s):0
Temperature: 77 F (25 C)
Dew Point: 57 F (14 C)
Relative Humidity: 50%
Pressure (altimeter): 29.88 in. Hg (1012 hPa)
ob: EHRD 211125Z AUTO 33009KT 250V020 9999 NCD 25/14 Q1012 NOSIG
cycle: 11

Station Type Date Time Source
EHRD TAF 2018/07/21 12:27 UTC NOAA

TAF EHRD 211057Z 2112/2218 32012KT 9999 FEW040
BECMG 2118/2121 35005KT CAVOK PROB30
TEMPO 2202/2205 4000 MIFG
BECMG 2210/2212 30010KT


Example: see airport list